Impression Bay — VROV6 — position and weather

sailwx.info

Track history (hours):
 
Tides and Currents Weather Stations Pressure Air Temp Water Temp Dewpoint Dewpoint Depression Visibility Wind Speed Wind Dir Waves Ship Positions

Impression Bay

Last reported at 2017-Dec-18 01:00 UTC. Time now 2017-Dec-18 01:19 UTC.
Position N 47°36' W 122°27'.

Length 180 m; draft 10 m.

Type: Cargo ship. MMSI: 477684500.

Date/timePositionNaut miles runAvg speedWind from/ knotsBaromVisibWave heightAir tempDewpointWater temp
2017-Dec-18 01:00N 47°36' W 122°27'713.9
2017-Dec-18 00:30N 47°29' W 122°25'713.3
2017-Dec-18 00:00N 47°23' W 122°22'611.6
2017-Dec-17 23:30N 47°19' W 122°27'3 5.2
2017-Dec-17 23:00N 47°17' W 122°25'1 2.2
2017-Dec-17 22:24N 47°16' W 122°23'1 2.1
2017-Dec-17 21:58N 47°16' W 122°22'0 0.0
2017-Dec-16 11:59N 47°16' W 122°22'0 0.0
2017-Dec-16 11:11N 47°16' W 122°22'0 0.0
2017-Dec-15 09:12N 47°16' W 122°22'0 0.0
2017-Dec-15 09:00N 47°16' W 122°22'0 0.0
2017-Dec-15 08:24N 47°16' W 122°22'0 0.0
2017-Dec-15 07:54N 47°16' W 122°22'0 0.0
2017-Dec-15 07:30N 47°16' W 122°22'0 0.0
2017-Dec-14 13:18N 47°16' W 122°22'0 0.0
2017-Dec-14 13:00N 47°16' W 122°22'0 0.0
2017-Dec-13 11:24N 47°16' W 122°22'0 0.0
2017-Dec-13 10:45N 47°16' W 122°22'  
2017-Dec-11 06:19N 47°16' W 122°22'0 0.0
2017-Dec-11 05:55N 47°16' W 122°22'0 0.0
2017-Dec-11 05:13N 47°16' W 122°22'2 0.3
2017-Dec-10 22:39N 47°17' W 122°24'0 2.6
2017-Dec-10 22:30N 47°17' W 122°25'3 5.5
2017-Dec-10 22:00N 47°19' W 122°28'611.9
2017-Dec-10 21:30N 47°24' W 122°22'713.2
2017-Dec-10 21:00N 47°30' W 122°26'713.5
2017-Dec-10 20:30N 47°36' W 122°28'713.3
2017-Dec-10 20:00N 47°43' W 122°27'713.3
2017-Dec-10 19:30N 47°50' W 122°28'713.2
2017-Dec-10 19:00N 47°56' W 122°31'813.4
2017-Dec-10 18:24N 48°02' W 122°39'613.0
2017-Dec-10 17:58N 48°07' W 122°42'714.8
2017-Dec-10 17:30N 48°11' W 122°50'713.5
2017-Dec-10 17:00N 48°12' W 123°01'713.9
2017-Dec-10 16:30N 48°12' W 123°11'714.0
2017-Dec-10 16:00N 48°10' W 123°21'5 8.9
2017-Dec-10 15:29N 48°12' W 123°28'613.3
2017-Dec-10 15:00N 48°13' W 123°37'714.2
2017-Dec-10 14:31N 48°13' W 123°47'713.8
2017-Dec-10 14:00N 48°14' W 123°58'713.7
2017-Dec-10 13:30N 48°17' W 124°07'714.0
2017-Dec-10 13:00N 48°20' W 124°17'713.3
2017-Dec-10 12:30N 48°23' W 124°26'613.3
2017-Dec-10 12:00N 48°26' W 124°35'713.4
2017-Dec-10 11:30N 48°28' W 124°44'712.8
2017-Dec-10 11:00N 48°29' W 124°54'612.0
2017-Dec-10 10:30N 48°29' W 125°03'612.2
2017-Dec-10 10:00N 48°29' W 125°12'612.7
2017-Dec-10 09:30N 48°29' W 125°21'612.7
2017-Dec-10 09:00N 48°29' W 125°31'612.7
2017-Dec-10 08:30N 48°29' W 125°40'612.7
2017-Dec-10 08:00N 48°29' W 125°50'613.0
2017-Dec-10 07:30N 48°29' W 125°60'713.1
2017-Dec-10 07:00N 48°29' W 126°10'713.4
2017-Dec-10 06:30N 48°29' W 126°20'613.2
2017-Dec-10 06:00N 48°29' W 126°30'7911.9
2017-Dec-09 23:19N 48°31' W 128°30'3615.5
2017-Dec-09 21:00N 48°30' W 129°24'27011.3 150 / 271013.0 5.4 15.011.313.0
2017-Dec-08 21:00N 48°36' W 136°12'   020 / 271012.0 2.2 13.011.112.0
Track history (hours):
 
Tides and Currents Weather Stations Pressure Air Temp Water Temp Dewpoint Dewpoint Depression Visibility Wind Speed Wind Dir Waves Ship Positions

Impression Bay

Last reported at 2017-Dec-18 01:00 UTC. Time now 2017-Dec-18 01:19 UTC.
Position N 47°36' W 122°27'.

Length 180 m; draft 10 m.

Type: Cargo ship. MMSI: 477684500.

Date/timePositionNaut miles runAvg speedWind from/ knotsBaromVisibWave heightAir tempDewpointWater temp
2017-Dec-18 01:00N 47°36' W 122°27'713.9
2017-Dec-18 00:30N 47°29' W 122°25'713.3
2017-Dec-18 00:00N 47°23' W 122°22'611.6
2017-Dec-17 23:30N 47°19' W 122°27'3 5.2
2017-Dec-17 23:00N 47°17' W 122°25'1 2.2
2017-Dec-17 22:24N 47°16' W 122°23'1 2.1
2017-Dec-17 21:58N 47°16' W 122°22'0 0.0
2017-Dec-16 11:59N 47°16' W 122°22'0 0.0
2017-Dec-16 11:11N 47°16' W 122°22'0 0.0
2017-Dec-15 09:12N 47°16' W 122°22'0 0.0
2017-Dec-15 09:00N 47°16' W 122°22'0 0.0
2017-Dec-15 08:24N 47°16' W 122°22'0 0.0
2017-Dec-15 07:54N 47°16' W 122°22'0 0.0
2017-Dec-15 07:30N 47°16' W 122°22'0 0.0
2017-Dec-14 13:18N 47°16' W 122°22'0 0.0
2017-Dec-14 13:00N 47°16' W 122°22'0 0.0
2017-Dec-13 11:24N 47°16' W 122°22'0 0.0
2017-Dec-13 10:45N 47°16' W 122°22'  
2017-Dec-11 06:19N 47°16' W 122°22'0 0.0
2017-Dec-11 05:55N 47°16' W 122°22'0 0.0
2017-Dec-11 05:13N 47°16' W 122°22'2 0.3
2017-Dec-10 22:39N 47°17' W 122°24'0 2.6
2017-Dec-10 22:30N 47°17' W 122°25'3 5.5
2017-Dec-10 22:00N 47°19' W 122°28'611.9
2017-Dec-10 21:30N 47°24' W 122°22'713.2
2017-Dec-10 21:00N 47°30' W 122°26'713.5
2017-Dec-10 20:30N 47°36' W 122°28'713.3
2017-Dec-10 20:00N 47°43' W 122°27'713.3
2017-Dec-10 19:30N 47°50' W 122°28'713.2
2017-Dec-10 19:00N 47°56' W 122°31'813.4
2017-Dec-10 18:24N 48°02' W 122°39'613.0
2017-Dec-10 17:58N 48°07' W 122°42'714.8
2017-Dec-10 17:30N 48°11' W 122°50'713.5
2017-Dec-10 17:00N 48°12' W 123°01'713.9
2017-Dec-10 16:30N 48°12' W 123°11'714.0
2017-Dec-10 16:00N 48°10' W 123°21'5 8.9
2017-Dec-10 15:29N 48°12' W 123°28'613.3
2017-Dec-10 15:00N 48°13' W 123°37'714.2
2017-Dec-10 14:31N 48°13' W 123°47'713.8
2017-Dec-10 14:00N 48°14' W 123°58'713.7
2017-Dec-10 13:30N 48°17' W 124°07'714.0
2017-Dec-10 13:00N 48°20' W 124°17'713.3
2017-Dec-10 12:30N 48°23' W 124°26'613.3
2017-Dec-10 12:00N 48°26' W 124°35'713.4
2017-Dec-10 11:30N 48°28' W 124°44'712.8
2017-Dec-10 11:00N 48°29' W 124°54'612.0
2017-Dec-10 10:30N 48°29' W 125°03'612.2
2017-Dec-10 10:00N 48°29' W 125°12'612.7
2017-Dec-10 09:30N 48°29' W 125°21'612.7
2017-Dec-10 09:00N 48°29' W 125°31'612.7
2017-Dec-10 08:30N 48°29' W 125°40'612.7
2017-Dec-10 08:00N 48°29' W 125°50'613.0
2017-Dec-10 07:30N 48°29' W 125°60'713.1
2017-Dec-10 07:00N 48°29' W 126°10'713.4
2017-Dec-10 06:30N 48°29' W 126°20'613.2
2017-Dec-10 06:00N 48°29' W 126°30'7911.9
2017-Dec-09 23:19N 48°31' W 128°30'3615.5
2017-Dec-09 21:00N 48°30' W 129°24'27011.3 150 / 271013.0 5.4 15.011.313.0
2017-Dec-08 21:00N 48°36' W 136°12'   020 / 271012.0 2.2 13.011.112.0

Dump ship's entire track history